sensor_id;sensor_type;location;lat;lon;timestamp;P1;durP1;ratioP1;P2;durP2;ratioP2
43690;SDS011;29293;52.190;21.226;2023-05-14T00:08:01;21.80;;;13.30;;
43690;SDS011;29293;52.190;21.226;2023-05-14T00:23:09;27.00;;;15.50;;
43690;SDS011;29293;52.190;21.226;2023-05-14T00:38:16;26.70;;;16.20;;
43690;SDS011;29293;52.190;21.226;2023-05-14T00:53:23;28.10;;;17.30;;
43690;SDS011;29293;52.190;21.226;2023-05-14T01:08:45;27.20;;;16.40;;
43690;SDS011;29293;52.190;21.226;2023-05-14T01:24:05;25.20;;;17.00;;
43690;SDS011;29293;52.190;21.226;2023-05-14T01:39:13;26.10;;;16.50;;
43690;SDS011;29293;52.190;21.226;2023-05-14T01:54:20;28.90;;;17.00;;
43690;SDS011;29293;52.190;21.226;2023-05-14T02:24:35;25.80;;;16.50;;
43690;SDS011;29293;52.190;21.226;2023-05-14T02:39:42;26.80;;;17.80;;
43690;SDS011;29293;52.190;21.226;2023-05-14T02:54:48;23.90;;;16.20;;
43690;SDS011;29293;52.190;21.226;2023-05-14T03:09:57;27.20;;;17.00;;
43690;SDS011;29293;52.190;21.226;2023-05-14T03:25:05;24.40;;;15.80;;
43690;SDS011;29293;52.190;21.226;2023-05-14T03:40:12;28.90;;;16.50;;
43690;SDS011;29293;52.190;21.226;2023-05-14T03:55:19;22.60;;;14.70;;
43690;SDS011;29293;52.190;21.226;2023-05-14T04:10:27;24.00;;;15.10;;
43690;SDS011;29293;52.190;21.226;2023-05-14T04:25:34;25.20;;;15.90;;
43690;SDS011;29293;52.190;21.226;2023-05-14T04:40:41;26.10;;;15.10;;
43690;SDS011;29293;52.190;21.226;2023-05-14T04:55:47;19.50;;;12.60;;
43690;SDS011;29293;52.190;21.226;2023-05-14T05:10:54;19.40;;;10.80;;
43690;SDS011;29293;52.190;21.226;2023-05-14T05:26:01;16.10;;;9.90;;
43690;SDS011;29293;52.190;21.226;2023-05-14T05:41:08;17.90;;;10.00;;
43690;SDS011;29293;52.190;21.226;2023-05-14T05:56:15;16.70;;;9.00;;
43690;SDS011;29293;52.190;21.226;2023-05-14T06:11:22;15.00;;;8.10;;
43690;SDS011;29293;52.190;21.226;2023-05-14T06:26:29;13.70;;;7.10;;
43690;SDS011;29293;52.190;21.226;2023-05-14T06:41:36;13.90;;;6.30;;
43690;SDS011;29293;52.190;21.226;2023-05-14T06:56:43;12.50;;;5.30;;
43690;SDS011;29293;52.190;21.226;2023-05-14T07:11:50;8.80;;;4.50;;
43690;SDS011;29293;52.190;21.226;2023-05-14T07:26:57;8.70;;;4.20;;
43690;SDS011;29293;52.190;21.226;2023-05-14T07:42:06;6.20;;;3.50;;
43690;SDS011;29293;52.190;21.226;2023-05-14T07:57:13;5.40;;;3.80;;
43690;SDS011;29293;52.190;21.226;2023-05-14T08:12:20;6.90;;;4.60;;
43690;SDS011;29293;52.190;21.226;2023-05-14T08:27:27;7.70;;;3.40;;
43690;SDS011;29293;52.190;21.226;2023-05-14T08:42:36;9.30;;;4.00;;
43690;SDS011;29293;52.190;21.226;2023-05-14T08:57:45;4.20;;;2.60;;
43690;SDS011;29293;52.190;21.226;2023-05-14T09:12:53;3.80;;;2.50;;
43690;SDS011;29293;52.190;21.226;2023-05-14T09:28:00;5.80;;;3.20;;
43690;SDS011;29293;52.190;21.226;2023-05-14T09:43:12;4.20;;;2.50;;
43690;SDS011;29293;52.190;21.226;2023-05-14T09:58:19;6.50;;;3.00;;
43690;SDS011;29293;52.190;21.226;2023-05-14T10:13:30;5.80;;;2.80;;
43690;SDS011;29293;52.190;21.226;2023-05-14T10:28:41;4.90;;;2.50;;
43690;SDS011;29293;52.190;21.226;2023-05-14T10:43:51;4.10;;;2.10;;
43690;SDS011;29293;52.190;21.226;2023-05-14T10:59:03;5.80;;;3.00;;
43690;SDS011;29293;52.190;21.226;2023-05-14T11:14:12;7.10;;;2.70;;
43690;SDS011;29293;52.190;21.226;2023-05-14T11:29:19;3.50;;;2.30;;
43690;SDS011;29293;52.190;21.226;2023-05-14T11:44:26;5.40;;;2.40;;
43690;SDS011;29293;52.190;21.226;2023-05-14T11:59:33;4.80;;;2.30;;
43690;SDS011;29293;52.190;21.226;2023-05-14T12:14:41;5.30;;;2.20;;
43690;SDS011;29293;52.190;21.226;2023-05-14T12:29:49;4.90;;;2.50;;
43690;SDS011;29293;52.190;21.226;2023-05-14T12:45:02;6.10;;;2.80;;
43690;SDS011;29293;52.190;21.226;2023-05-14T13:00:18;5.20;;;2.10;;
43690;SDS011;29293;52.190;21.226;2023-05-14T13:15:25;4.60;;;2.20;;
43690;SDS011;29293;52.190;21.226;2023-05-14T13:30:36;6.60;;;2.10;;
43690;SDS011;29293;52.190;21.226;2023-05-14T13:45:43;8.30;;;2.40;;
43690;SDS011;29293;52.190;21.226;2023-05-14T14:00:52;6.60;;;2.20;;
43690;SDS011;29293;52.190;21.226;2023-05-14T14:16:24;5.30;;;2.30;;
43690;SDS011;29293;52.190;21.226;2023-05-14T14:31:31;3.60;;;2.10;;
43690;SDS011;29293;52.190;21.226;2023-05-14T14:46:39;5.80;;;2.40;;
43690;SDS011;29293;52.190;21.226;2023-05-14T15:01:46;5.90;;;2.70;;
43690;SDS011;29293;52.190;21.226;2023-05-14T15:16:53;4.80;;;2.30;;
43690;SDS011;29293;52.190;21.226;2023-05-14T15:32:00;3.90;;;2.20;;
43690;SDS011;29293;52.190;21.226;2023-05-14T15:47:08;6.40;;;2.70;;
43690;SDS011;29293;52.190;21.226;2023-05-14T16:02:15;6.20;;;2.50;;
43690;SDS011;29293;52.190;21.226;2023-05-14T16:17:23;7.10;;;2.70;;
43690;SDS011;29293;52.190;21.226;2023-05-14T16:32:31;5.30;;;2.70;;
43690;SDS011;29293;52.190;21.226;2023-05-14T16:47:38;3.90;;;2.60;;
43690;SDS011;29293;52.190;21.226;2023-05-14T17:02:45;4.00;;;2.80;;
43690;SDS011;29293;52.190;21.226;2023-05-14T17:17:54;3.80;;;2.40;;
43690;SDS011;29293;52.190;21.226;2023-05-14T17:33:01;6.30;;;2.50;;
43690;SDS011;29293;52.190;21.226;2023-05-14T17:48:09;5.10;;;2.50;;
43690;SDS011;29293;52.190;21.226;2023-05-14T18:03:15;7.30;;;2.90;;
43690;SDS011;29293;52.190;21.226;2023-05-14T18:18:23;6.30;;;2.90;;
43690;SDS011;29293;52.190;21.226;2023-05-14T18:33:30;4.30;;;3.00;;
43690;SDS011;29293;52.190;21.226;2023-05-14T18:48:37;6.50;;;3.20;;
43690;SDS011;29293;52.190;21.226;2023-05-14T19:03:44;7.90;;;3.40;;
43690;SDS011;29293;52.190;21.226;2023-05-14T19:18:55;9.00;;;3.30;;
43690;SDS011;29293;52.190;21.226;2023-05-14T19:34:02;9.10;;;4.70;;
43690;SDS011;29293;52.190;21.226;2023-05-14T19:49:09;9.30;;;4.50;;
43690;SDS011;29293;52.190;21.226;2023-05-14T20:04:16;9.90;;;5.10;;
43690;SDS011;29293;52.190;21.226;2023-05-14T20:19:24;16.30;;;5.60;;
43690;SDS011;29293;52.190;21.226;2023-05-14T20:34:31;12.00;;;5.80;;
43690;SDS011;29293;52.190;21.226;2023-05-14T20:49:38;11.30;;;6.00;;
43690;SDS011;29293;52.190;21.226;2023-05-14T21:04:45;12.20;;;5.90;;
43690;SDS011;29293;52.190;21.226;2023-05-14T21:19:52;15.30;;;6.30;;
43690;SDS011;29293;52.190;21.226;2023-05-14T21:34:59;13.10;;;6.30;;
43690;SDS011;29293;52.190;21.226;2023-05-14T21:50:07;10.20;;;5.30;;
43690;SDS011;29293;52.190;21.226;2023-05-14T22:05:16;12.10;;;5.60;;
43690;SDS011;29293;52.190;21.226;2023-05-14T22:20:23;11.80;;;5.50;;
43690;SDS011;29293;52.190;21.226;2023-05-14T22:35:30;11.50;;;5.90;;
43690;SDS011;29293;52.190;21.226;2023-05-14T22:50:37;8.30;;;5.40;;
43690;SDS011;29293;52.190;21.226;2023-05-14T23:05:45;7.20;;;4.80;;
43690;SDS011;29293;52.190;21.226;2023-05-14T23:20:54;7.70;;;4.40;;
43690;SDS011;29293;52.190;21.226;2023-05-14T23:51:07;9.20;;;4.20;;
